Son, Netherlands
Current Conditions -  °F | °C
As of 6:55 AM on Wednesday 22 Oct 2014 (Local Time) from EHEH Reporting Station
Light Rain Light Rain  
Wind Chill: 41°   Ceiling: 2600
Heat Index: 45°   Visibility: 6mi
Dew Point: 43°   Wind: 7mph
Humidity: 93%   Direction: 300°WNW
Pressure: 29.97"   Gusts: NA
Location:  51.51°N, 5.49°E
Report Text: EHEH 220455Z AUTO 30006KT 9999 -RA FEW010 SCT015TCU BKN026OVC035 07/06 Q1015 RERAWHT 27010G20KT 9999 FEW020 BKN028 TEMPO SHRA RA FEW015 SCT020CBBKN025
Loading
Personal Weather Stations






























Interactive Weather Map
Tropical Storm Tracking
New forecast layout! Learn more

10-Day Weather Forecast

Advertisements
Track Severe Weather on mobile